Time;durP1;ratioP1;P1;durP2;ratioP2;P2;SDS_P1;SDS_P2;PMS_P1;PMS_P2;Temp;Humidity;BMP_temperature;BMP_pressure;BME280_temperature;BME280_humidity;BME280_pressure;Samples;Min_cycle;Max_cycle;Signal;HPM_P1;HPM_P2
2023/04/13 00:03:05;;;;;;;8.02;3.65;;;;;;;3.56;100.00;99493.25;10369454;28;20045;-72
2023/04/13 00:08:06;;;;;;;6.63;3.28;;;;;;;3.64;100.00;99492.88;10354840;28;20048;-73
2023/04/13 00:13:08;;;;;;;6.68;4.05;;;;;;;3.58;100.00;99477.50;10355461;28;20053;-77
2023/04/13 00:18:09;;;;;;;10.95;3.70;;;;;;;3.66;100.00;99477.13;10353844;28;20042;-78
2023/04/13 00:23:10;;;;;;;10.20;4.30;;;;;;;3.75;100.00;99469.38;10337747;28;20064;-77
2023/04/13 00:28:10;;;;;;;7.78;3.58;;;;;;;3.93;100.00;99473.78;10338888;28;20064;-77
2023/04/13 00:33:11;;;;;;;7.22;3.97;;;;;;;4.06;100.00;99457.13;10340100;28;20060;-76
2023/04/13 00:38:11;;;;;;;7.13;3.53;;;;;;;4.15;100.00;99442.00;10371821;28;20030;-77
2023/04/13 00:43:12;;;;;;;8.32;3.55;;;;;;;4.32;100.00;99430.28;10410681;28;20037;-77
2023/04/13 00:48:13;;;;;;;5.90;3.50;;;;;;;4.47;100.00;99438.72;10385095;28;20038;-77
2023/04/13 00:53:14;;;;;;;6.28;3.33;;;;;;;4.50;100.00;99427.31;10393758;28;20072;-78
2023/04/13 00:58:15;;;;;;;9.40;3.00;;;;;;;4.57;100.00;99421.69;10413443;28;20486;-76
2023/04/13 01:03:16;;;;;;;7.78;3.33;;;;;;;4.31;100.00;99364.09;10417186;28;20041;-77
2023/04/13 01:08:26;;;;;;;5.45;3.20;;;;;;;4.80;100.00;99426.94;10347175;28;20101;-77
2023/04/13 01:13:33;;;;;;;4.45;3.20;;;;;;;4.92;100.00;99415.06;10378022;28;20060;-78
2023/04/13 01:18:34;;;;;;;3.63;2.28;;;;;;;4.89;100.00;99397.31;10375945;28;20038;-77
2023/04/13 01:23:54;;;;;;;5.55;3.00;;;;;;;4.99;100.00;99400.16;10367390;28;20413;-77
2023/04/13 01:28:54;;;;;;;6.75;3.10;;;;;;;4.98;100.00;99387.63;10363241;28;20045;-77
2023/04/13 01:33:55;;;;;;;5.75;2.60;;;;;;;5.25;100.00;99400.50;10360171;28;20088;-77
2023/04/13 01:38:55;;;;;;;3.65;2.08;;;;;;;5.42;100.00;99408.59;10360826;28;20060;-77
2023/04/13 01:43:56;;;;;;;4.75;2.60;;;;;;;5.43;100.00;99404.75;10360017;28;20084;-76
2023/04/13 01:48:56;;;;;;;11.02;3.40;;;;;;;5.34;100.00;99388.03;10344418;28;20030;-73
2023/04/13 01:54:06;;;;;;;6.40;3.10;;;;;;;5.22;100.00;99390.06;10360667;28;20041;-74
2023/04/13 01:59:07;;;;;;;8.40;3.28;;;;;;;5.19;100.00;99390.59;10364585;28;20088;-76
2023/04/13 02:04:08;;;;;;;5.28;3.08;;;;;;;5.09;100.00;99385.03;10358155;28;20030;-77
2023/04/13 02:09:08;;;;;;;7.63;3.08;;;;;;;5.04;100.00;99383.03;10359070;28;20037;-78
2023/04/13 02:14:09;;;;;;;3.80;2.35;;;;;;;4.94;100.00;99374.72;10376465;28;20037;-78
2023/04/13 02:19:10;;;;;;;4.97;3.40;;;;;;;4.88;100.00;99354.78;10326983;28;20485;-77
2023/04/13 02:24:10;;;;;;;6.90;3.83;;;;;;;5.04;100.00;99367.50;10377935;28;20524;-79
2023/04/13 02:29:11;;;;;;;8.57;3.83;;;;;;;4.92;100.00;99347.72;10376409;28;20049;-78
2023/04/13 02:34:11;;;;;;;6.28;3.28;;;;;;;4.97;100.00;99364.16;10373748;28;20042;-77
2023/04/13 02:39:12;;;;;;;6.05;3.78;;;;;;;4.98;100.00;99367.69;10375465;28;20084;-77
2023/04/13 02:44:12;;;;;;;6.63;4.22;;;;;;;4.96;100.00;99357.06;10358596;28;20041;-72
2023/04/13 02:49:13;;;;;;;8.80;4.35;;;;;;;4.98;100.00;99363.09;10342884;28;22204;-76
2023/04/13 02:54:13;;;;;;;7.03;4.18;;;;;;;5.02;100.00;99358.75;10377890;28;20081;-76
2023/04/13 02:59:15;;;;;;;5.35;4.25;;;;;;;4.94;100.00;99353.75;10374895;28;20042;-75
2023/04/13 03:04:16;;;;;;;7.60;4.55;;;;;;;5.02;100.00;99341.56;10373645;28;20168;-76
2023/04/13 03:09:16;;;;;;;9.50;5.40;;;;;;;4.98;100.00;99357.63;10375076;28;20098;-76
2023/04/13 03:14:20;;;;;;;9.60;5.57;;;;;;;4.81;100.00;99316.78;10373843;28;20532;-76
2023/04/13 03:19:20;;;;;;;11.02;6.50;;;;;;;4.95;100.00;99336.31;10357625;28;20041;-77
2023/04/13 03:24:21;;;;;;;10.77;7.03;;;;;;;4.84;100.00;99319.00;10381843;28;20440;-79
2023/04/13 03:29:23;;;;;;;9.70;6.28;;;;;;;4.88;100.00;99332.97;10398011;28;20081;-77
2023/04/13 03:34:23;;;;;;;17.70;7.53;;;;;;;4.85;100.00;99336.19;10395574;28;20068;-80
2023/04/13 03:39:24;;;;;;;14.23;6.57;;;;;;;5.04;100.00;99351.16;10397259;28;20033;-78
2023/04/13 03:44:24;;;;;;;12.85;6.70;;;;;;;4.94;100.00;99334.66;10396830;28;20040;-76
2023/04/13 03:49:25;;;;;;;10.57;6.60;;;;;;;4.93;100.00;99343.91;10381126;28;20097;-76
2023/04/13 03:54:25;;;;;;;13.52;4.90;;;;;;;4.92;100.00;99328.66;10357376;28;20038;-77
2023/04/13 03:59:26;;;;;;;9.60;4.53;;;;;;;5.11;100.00;99350.13;10354392;28;20041;-75
2023/04/13 04:04:27;;;;;;;11.98;4.30;;;;;;;5.09;100.00;99346.84;10339611;28;20042;-79
2023/04/13 04:09:28;;;;;;;4.80;3.90;;;;;;;4.73;100.00;99289.13;10355532;28;20041;-81
2023/04/13 04:14:28;;;;;;;7.18;4.32;;;;;;;5.14;100.00;99352.34;10339371;28;20033;-80
2023/04/13 04:19:28;;;;;;;16.35;5.32;;;;;;;5.03;100.00;99338.56;10372164;28;20060;-80
2023/04/13 04:24:29;;;;;;;7.88;4.13;;;;;;;5.11;100.00;99358.31;10357254;28;20060;-79
2023/04/13 04:29:35;;;;;;;8.82;4.55;;;;;;;5.17;100.00;99365.47;10372409;28;20038;-80
2023/04/13 04:34:37;;;;;;;9.80;4.93;;;;;;;5.26;100.00;99375.66;10370973;28;20092;-79
2023/04/13 04:39:43;;;;;;;11.02;4.95;;;;;;;5.25;100.00;99386.84;10354364;28;20410;-79
2023/04/13 04:44:43;;;;;;;8.77;4.97;;;;;;;5.25;100.00;99384.13;10371037;28;20053;-78
2023/04/13 04:49:44;;;;;;;8.77;4.35;;;;;;;5.15;100.00;99378.56;10372106;28;20034;-79
2023/04/13 04:54:45;;;;;;;6.50;4.15;;;;;;;5.31;100.00;99404.91;10372643;28;20053;-80
2023/04/13 04:59:48;;;;;;;7.05;4.40;;;;;;;5.29;100.00;99412.50;10353910;28;20030;-80
2023/04/13 05:04:48;;;;;;;5.43;3.47;;;;;;;5.20;100.00;99411.34;10353198;28;20069;-80
2023/04/13 05:09:49;;;;;;;6.72;3.33;;;;;;;4.94;100.00;99394.66;10353723;28;20081;-80
2023/04/13 05:14:49;;;;;;;5.35;3.60;;;;;;;4.97;100.00;99424.16;10321290;28;20038;-79
2023/04/13 05:19:50;;;;;;;6.03;4.03;;;;;;;4.98;100.00;99434.00;10372812;28;20077;-80
2023/04/13 05:24:50;;;;;;;9.68;4.38;;;;;;;5.03;100.00;99452.31;10354401;28;20069;-80
2023/04/13 05:29:51;;;;;;;7.85;4.38;;;;;;;5.16;100.00;99456.56;10353128;28;20042;-80
2023/04/13 05:34:51;;;;;;;10.80;5.50;;;;;;;5.24;100.00;99465.13;10370856;28;20038;-78
2023/04/13 05:39:52;;;;;;;9.02;5.30;;;;;;;5.34;100.00;99469.91;10353064;28;20034;-73
2023/04/13 05:44:53;;;;;;;11.25;6.15;;;;;;;5.40;100.00;99487.16;10353473;28;20046;-80
2023/04/13 05:49:53;;;;;;;10.07;4.97;;;;;;;5.47;100.00;99490.53;10357274;28;20030;-79
2023/04/13 05:54:53;;;;;;;9.65;5.25;;;;;;;5.37;100.00;99468.56;10370304;28;20042;-79
2023/04/13 05:59:54;;;;;;;10.02;5.18;;;;;;;5.62;100.00;99504.38;10373005;28;20038;-79
2023/04/13 06:04:55;;;;;;;14.05;5.18;;;;;;;5.69;100.00;99506.88;10375672;28;20038;-79
2023/04/13 06:09:55;;;;;;;11.35;5.28;;;;;;;5.83;100.00;99516.34;10379288;28;20053;-78
2023/04/13 06:14:56;;;;;;;6.93;3.63;;;;;;;6.01;100.00;99530.75;10375190;28;20049;-79
2023/04/13 06:19:56;;;;;;;9.73;4.63;;;;;;;6.20;100.00;99520.28;10379091;28;20041;-78
2023/04/13 06:24:56;;;;;;;5.93;3.70;;;;;;;6.34;100.00;99532.44;10352330;28;20037;-79
2023/04/13 06:29:57;;;;;;;9.07;3.92;;;;;;;6.31;100.00;99530.25;10416258;28;20069;-72
2023/04/13 06:34:57;;;;;;;6.15;3.47;;;;;;;6.16;100.00;99522.72;10431927;28;20061;-79
2023/04/13 06:39:58;;;;;;;10.00;3.63;;;;;;;6.55;100.00;99549.03;10416227;28;20045;-78
2023/04/13 06:44:58;;;;;;;9.98;3.33;;;;;;;6.55;100.00;99547.13;10416492;28;20064;-80
2023/04/13 06:50:04;;;;;;;7.53;3.97;;;;;;;6.60;100.00;99540.88;10418019;28;20064;-79
2023/04/13 06:55:05;;;;;;;8.10;3.70;;;;;;;6.94;100.00;99560.56;10370467;28;20046;-80
2023/04/13 07:00:06;;;;;;;6.97;3.58;;;;;;;6.97;100.00;99560.03;10330513;28;20037;-80
2023/04/13 07:05:07;;;;;;;7.55;3.88;;;;;;;7.04;100.00;99555.16;10356698;28;20144;-79
2023/04/13 07:10:08;;;;;;;4.75;3.55;;;;;;;6.85;100.00;99556.66;10374136;28;20041;-78
2023/04/13 07:15:08;;;;;;;12.65;4.95;;;;;;;6.76;100.00;99560.94;10358147;28;20046;-78
2023/04/13 07:20:09;;;;;;;7.78;4.22;;;;;;;7.32;100.00;99569.56;10326728;28;20106;-77
2023/04/13 07:25:10;;;;;;;7.85;3.85;;;;;;;7.55;100.00;99592.97;10393251;28;20076;-78
2023/04/13 07:30:11;;;;;;;7.40;4.10;;;;;;;7.46;100.00;99587.19;10400661;28;20049;-80
2023/04/13 07:35:11;;;;;;;6.57;3.60;;;;;;;7.54;100.00;99604.19;10409805;28;20048;-80
2023/04/13 07:40:12;;;;;;;7.45;3.63;;;;;;;7.54;100.00;99610.47;10382066;28;20046;-80
2023/04/13 07:45:14;;;;;;;6.25;2.92;;;;;;;7.99;100.00;99610.97;10409787;28;20041;-80
2023/04/13 07:50:15;;;;;;;5.68;2.95;;;;;;;8.37;100.00;99614.38;10395262;28;20030;-80
2023/04/13 07:55:15;;;;;;;9.55;3.20;;;;;;;8.23;100.00;99620.38;10390585;28;20033;-81
2023/04/13 08:00:19;;;;;;;6.05;2.40;;;;;;;8.19;100.00;99593.78;10392380;28;20042;-81
2023/04/13 08:05:19;;;;;;;8.02;3.45;;;;;;;8.35;100.00;99624.78;10378565;28;20056;-81
2023/04/13 08:10:20;;;;;;;8.60;2.72;;;;;;;8.44;100.00;99635.00;10355144;28;20038;-79
2023/04/13 08:15:20;;;;;;;8.50;3.10;;;;;;;8.58;100.00;99631.72;10356104;28;20030;-77
2023/04/13 08:20:21;;;;;;;5.90;2.10;;;;;;;8.55;100.00;99646.81;10402550;28;20061;-80
2023/04/13 08:25:21;;;;;;;9.60;1.90;;;;;;;8.52;100.00;99650.13;10399786;28;20038;-80
2023/04/13 08:30:22;;;;;;;5.00;1.88;;;;;;;8.61;100.00;99643.00;10337465;28;20039;-81
2023/04/13 08:35:22;;;;;;;7.78;2.53;;;;;;;8.24;100.00;99605.56;10353286;28;20034;-81
2023/04/13 08:40:23;;;;;;;5.72;1.95;;;;;;;8.79;100.00;99671.84;10371724;28;20053;-79
2023/04/13 08:45:23;;;;;;;7.22;2.10;;;;;;;9.54;100.00;99679.53;10356167;28;20034;-80
2023/04/13 08:50:27;;;;;;;6.15;2.42;;;;;;;9.37;100.00;99684.50;10375388;28;20068;-80
2023/04/13 08:55:28;;;;;;;4.85;1.55;;;;;;;8.90;100.00;99675.41;10351846;28;20045;-78
2023/04/13 09:00:29;;;;;;;7.13;1.55;;;;;;;9.60;100.00;99713.34;10404570;28;20033;-79
2023/04/13 09:05:29;;;;;;;10.43;1.75;;;;;;;9.10;100.00;99713.06;10410284;28;20041;-77
2023/04/13 09:10:30;;;;;;;6.20;1.50;;;;;;;8.61;100.00;99721.75;10357148;28;20034;-77
2023/04/13 09:15:31;;;;;;;4.55;1.90;;;;;;;8.04;100.00;99729.69;10370774;28;20046;-77
2023/04/13 09:20:32;;;;;;;5.00;2.10;;;;;;;7.97;100.00;99750.19;10354650;28;20038;-77
2023/04/13 09:25:32;;;;;;;5.55;1.88;;;;;;;7.75;100.00;99742.94;10376764;28;20062;-78
2023/04/13 09:30:33;;;;;;;3.97;2.08;;;;;;;7.67;100.00;99759.88;10378388;28;20050;-81
2023/04/13 09:35:33;;;;;;;1.42;0.80;;;;;;;8.11;100.00;99762.34;10359989;28;20030;-87
2023/04/13 09:40:37;;;;;;;1.40;0.70;;;;;;;8.44;100.00;99771.31;10344246;28;20163;-83
2023/04/13 09:45:38;;;;;;;1.67;0.52;;;;;;;8.67;100.00;99781.84;10364035;28;20053;-82
2023/04/13 09:50:39;;;;;;;2.78;0.70;;;;;;;8.35;100.00;99768.25;10361419;28;20048;-79
2023/04/13 09:55:39;;;;;;;0.63;0.35;;;;;;;8.39;100.00;99785.81;10359878;28;20824;-84
2023/04/13 10:00:41;;;;;;;1.88;0.50;;;;;;;8.69;100.00;99756.88;10373212;28;20079;-82
2023/04/13 10:05:42;;;;;;;1.70;0.60;;;;;;;9.46;100.00;99787.25;10375702;28;20072;-83
2023/04/13 10:10:42;;;;;;;2.33;0.98;;;;;;;9.82;100.00;99804.56;10343666;28;21303;-83
2023/04/13 10:16:20;;;;;;;2.55;0.95;;;;;;;10.15;100.00;99804.25;10375992;28;20437;-85
2023/04/13 10:21:21;;;;;;;1.08;0.40;;;;;;;10.64;100.00;99798.91;10391020;28;20610;-77
2023/04/13 10:26:35;;;;;;;2.80;0.73;;;;;;;10.48;100.00;99803.66;10372705;28;20067;-83
2023/04/13 10:31:45;;;;;;;3.50;0.90;;;;;;;9.35;100.00;99835.03;10324583;28;20081;-81
2023/04/13 10:36:46;;;;;;;1.95;0.77;;;;;;;8.80;100.00;99867.50;10391989;28;20037;-79
2023/04/13 10:41:46;;;;;;;9.18;0.68;;;;;;;7.10;100.00;99891.84;10391468;28;20131;-78
2023/04/13 10:46:50;;;;;;;3.33;0.60;;;;;;;6.50;100.00;99910.75;10340612;28;20052;-76
2023/04/13 10:51:51;;;;;;;2.80;0.50;;;;;;;6.31;100.00;99909.38;10323001;28;20096;-78
2023/04/13 10:57:02;;;;;;;2.47;0.65;;;;;;;6.78;100.00;99928.94;10372831;28;20044;-80
2023/04/13 11:02:11;;;;;;;3.97;1.00;;;;;;;6.76;100.00;99938.44;10372705;28;20473;-82
2023/04/13 11:07:20;;;;;;;4.20;0.70;;;;;;;6.83;100.00;99939.94;10343126;28;20060;-80
2023/04/13 11:12:20;;;;;;;0.85;0.40;;;;;;;6.72;100.00;99948.22;10341727;28;20565;-79
2023/04/13 11:17:21;;;;;;;0.93;0.45;;;;;;;6.85;100.00;99956.09;10373212;28;20041;-78
2023/04/13 11:22:22;;;;;;;2.60;0.70;;;;;;;7.06;100.00;99955.28;10372221;28;20034;-79
2023/04/13 11:27:23;;;;;;;3.45;1.08;;;;;;;7.51;100.00;99955.28;10353209;28;20037;-81
2023/04/13 11:32:25;;;;;;;9.68;1.88;;;;;;;7.92;100.00;99944.72;10372014;28;20056;-81
2023/04/13 11:37:27;;;;;;;7.88;1.73;;;;;;;8.29;100.00;99955.78;10357219;28;20033;-81
2023/04/13 11:42:27;;;;;;;6.93;1.60;;;;;;;8.62;100.00;99960.19;10355506;28;20053;-80
2023/04/13 11:47:28;;;;;;;10.65;1.92;;;;;;;8.71;100.00;99951.44;10371004;28;20049;-80
2023/04/13 11:52:28;;;;;;;13.55;2.53;;;;;;;9.42;100.00;99979.25;10387054;28;20056;-80
2023/04/13 11:57:30;;;;;;;7.38;2.15;;;;;;;10.27;100.00;99967.06;10353098;28;20048;-79
2023/04/13 12:02:31;;;;;;;7.80;1.60;;;;;;;10.45;100.00;99985.81;10357288;28;20037;-80
2023/04/13 12:07:31;;;;;;;8.32;1.15;;;;;;;9.98;100.00;99986.84;10356240;28;20428;-79
2023/04/13 12:12:32;;;;;;;10.02;1.73;;;;;;;10.22;100.00;99984.41;10387411;28;20046;-75
2023/04/13 12:17:33;;;;;;;6.32;1.60;;;;;;;10.73;100.00;99988.28;10371281;28;20060;-79
2023/04/13 12:22:43;;;;;;;9.45;1.30;;;;;;;10.48;100.00;99989.97;10354456;28;20037;-81
2023/04/13 12:27:43;;;;;;;7.13;1.30;;;;;;;10.38;100.00;99996.28;10352975;28;20333;-77
2023/04/13 12:32:48;;;;;;;9.82;1.45;;;;;;;10.17;100.00;100006.44;10355010;28;20502;-79
2023/04/13 12:37:49;;;;;;;8.18;1.77;;;;;;;10.80;100.00;100019.94;10364143;28;20045;-78
2023/04/13 12:42:50;;;;;;;8.90;2.03;;;;;;;11.21;100.00;99969.47;10376385;28;20034;-79
2023/04/13 12:47:50;;;;;;;8.20;2.13;;;;;;;10.92;100.00;100027.94;10361829;28;20101;-82
2023/04/13 12:52:51;;;;;;;6.65;1.10;;;;;;;10.24;100.00;100045.47;10382008;28;20054;-79
2023/04/13 12:57:51;;;;;;;9.23;1.50;;;;;;;9.98;100.00;100052.84;10374178;28;20034;-82
2023/04/13 13:02:52;;;;;;;10.43;1.33;;;;;;;9.73;100.00;100078.31;10352224;28;20038;-81
2023/04/13 13:07:52;;;;;;;10.43;1.80;;;;;;;9.43;100.00;100079.84;10335066;28;20036;-82
2023/04/13 13:12:53;;;;;;;8.10;2.22;;;;;;;9.35;100.00;100102.31;10367026;28;20054;-82
2023/04/13 13:17:53;;;;;;;8.10;1.67;;;;;;;9.61;100.00;100119.78;10366662;28;20453;-87
2023/04/13 13:22:54;;;;;;;7.22;1.25;;;;;;;9.42;100.00;100108.38;10384887;28;20041;-83
2023/04/13 13:27:56;;;;;;;9.48;1.83;;;;;;;9.48;100.00;100115.56;10383617;28;20033;-82
2023/04/13 13:32:58;;;;;;;8.25;1.70;;;;;;;9.67;100.00;100124.22;10369257;28;20033;-84
2023/04/13 13:38:02;;;;;;;11.30;1.77;;;;;;;9.86;100.00;100115.47;10365578;28;20053;-86
2023/04/13 13:43:03;;;;;;;6.22;1.23;;;;;;;9.86;100.00;100121.84;10360597;28;20037;-84
2023/04/13 13:48:03;;;;;;;8.93;1.50;;;;;;;9.79;100.00;100145.16;10387151;28;20044;-83
2023/04/13 13:53:04;;;;;;;8.98;1.63;;;;;;;9.42;100.00;100149.59;10416993;28;20101;-80
2023/04/13 13:58:05;;;;;;;9.98;2.47;;;;;;;9.05;100.00;100175.16;10402865;28;20038;-78
2023/04/13 14:03:05;;;;;;;4.50;1.40;;;;;;;9.35;100.00;100187.47;10366622;28;20041;-79
2023/04/13 14:08:06;;;;;;;12.70;1.33;;;;;;;9.52;100.00;100194.72;10365840;28;20521;-79
2023/04/13 14:13:06;;;;;;;4.63;1.45;;;;;;;9.79;100.00;100181.72;10376331;28;20038;-81
2023/04/13 14:18:07;;;;;;;11.10;1.50;;;;;;;10.40;100.00;100191.41;10345125;28;20042;-79
2023/04/13 14:23:07;;;;;;;9.68;1.23;;;;;;;10.61;100.00;100204.09;10341188;28;20033;-81
2023/04/13 14:28:09;;;;;;;6.72;1.27;;;;;;;10.55;100.00;100202.44;10358154;28;20099;-77
2023/04/13 14:33:13;;;;;;;9.40;2.30;;;;;;;10.19;100.00;100224.28;10352221;28;20038;-80
2023/04/13 14:38:14;;;;;;;7.18;1.58;;;;;;;10.07;100.00;100237.44;10373562;28;20080;-79
2023/04/13 14:43:15;;;;;;;5.18;1.25;;;;;;;10.64;100.00;100257.78;10374890;28;20046;-80
2023/04/13 14:48:16;;;;;;;11.45;2.60;;;;;;;11.87;100.00;100236.69;10358376;28;20041;-81
2023/04/13 14:53:16;;;;;;;7.97;1.42;;;;;;;11.38;100.00;100242.78;10341757;28;20053;-81
2023/04/13 14:58:17;;;;;;;5.20;1.50;;;;;;;11.26;100.00;100242.22;10359973;28;20045;-77
2023/04/13 15:03:17;;;;;;;8.05;1.17;;;;;;;10.99;100.00;100270.00;10373039;28;20042;-81
2023/04/13 15:08:18;;;;;;;6.68;1.40;;;;;;;10.55;100.00;100276.75;10357235;28;20034;-80
2023/04/13 15:13:18;;;;;;;12.68;1.60;;;;;;;10.20;100.00;100297.44;10373632;28;20042;-79
2023/04/13 15:18:19;;;;;;;5.82;1.63;;;;;;;9.96;100.00;100285.19;10374731;28;20041;-82
2023/04/13 15:23:20;;;;;;;9.45;1.55;;;;;;;9.94;100.00;100303.88;10357270;28;20038;-81
2023/04/13 15:28:20;;;;;;;10.52;2.60;;;;;;;10.18;100.00;100309.81;10342499;28;20046;-80
2023/04/13 15:33:21;;;;;;;7.95;1.15;;;;;;;10.55;100.00;100304.28;10355735;28;20486;-80
2023/04/13 15:38:21;;;;;;;5.70;1.15;;;;;;;11.30;100.00;100315.78;10374216;28;20398;-80
2023/04/13 15:43:22;;;;;;;3.90;1.35;;;;;;;11.29;100.00;100316.09;10373902;28;20049;-83
2023/04/13 15:48:22;;;;;;;6.72;1.40;;;;;;;13.07;100.00;100303.09;10355934;28;20065;-83
2023/04/13 15:53:23;;;;;;;6.32;1.52;;;;;;;14.14;100.00;100306.16;10374529;28;20528;-70
2023/04/13 15:58:23;;;;;;;6.55;1.58;;;;;;;14.02;100.00;100300.19;10385135;28;20034;-82
2023/04/13 16:03:24;;;;;;;5.57;1.10;;;;;;;13.72;100.00;100321.47;10411838;28;20366;-82
2023/04/13 16:08:25;;;;;;;7.18;1.55;;;;;;;12.65;100.00;100329.25;10395241;28;20031;-81
2023/04/13 16:13:25;;;;;;;6.85;1.40;;;;;;;12.49;100.00;100346.97;10394992;28;20037;-82
2023/04/13 16:18:30;;;;;;;5.45;1.40;;;;;;;13.52;100.00;100320.53;10374747;28;20057;-81
2023/04/13 16:23:32;;;;;;;7.25;1.10;;;;;;;14.47;100.00;100309.13;10412374;28;20037;-81
2023/04/13 16:28:33;;;;;;;9.02;1.20;;;;;;;13.80;100.00;100317.25;10414354;28;20421;-80
2023/04/13 16:33:33;;;;;;;5.78;1.05;;;;;;;13.71;98.56;100283.88;10376659;28;20049;-82
2023/04/13 16:38:34;;;;;;;5.65;1.73;;;;;;;14.83;95.01;100305.97;10409426;28;20048;-82
2023/04/13 16:43:34;;;;;;;10.95;2.25;;;;;;;14.68;92.15;100318.91;10411861;28;20041;-81
2023/04/13 16:48:35;;;;;;;5.15;1.38;;;;;;;14.18;93.54;100357.06;10411775;28;20034;-82
2023/04/13 16:53:36;;;;;;;5.47;1.10;;;;;;;12.69;95.99;100365.41;10412980;28;20041;-83
2023/04/13 16:58:36;;;;;;;5.25;1.17;;;;;;;11.50;100.00;100380.34;10412539;28;20049;-80
2023/04/13 17:03:37;;;;;;;9.82;1.50;;;;;;;11.11;100.00;100397.31;10393429;28;20042;-78
2023/04/13 17:08:37;;;;;;;11.63;1.50;;;;;;;10.54;100.00;100407.19;10411129;28;20032;-79
2023/04/13 17:13:38;;;;;;;10.30;1.30;;;;;;;10.30;100.00;100423.28;10413247;28;20046;-79
2023/04/13 17:18:38;;;;;;;9.90;2.28;;;;;;;10.12;100.00;100443.72;10395307;28;20034;-79
2023/04/13 17:23:39;;;;;;;6.35;1.15;;;;;;;9.89;100.00;100434.72;10371701;28;20138;-76
2023/04/13 17:28:40;;;;;;;10.10;1.88;;;;;;;9.63;100.00;100438.31;10397719;28;20115;-78
2023/04/13 17:33:40;;;;;;;6.35;1.52;;;;;;;9.65;100.00;100467.22;10395759;28;20114;-79
2023/04/13 17:38:41;;;;;;;7.97;1.88;;;;;;;9.50;100.00;100467.84;10382744;28;20060;-79
2023/04/13 17:43:41;;;;;;;7.47;2.05;;;;;;;9.36;100.00;100474.81;10412193;28;20041;-78
2023/04/13 17:48:42;;;;;;;5.40;1.90;;;;;;;9.13;100.00;100469.59;10401473;28;20061;-79
2023/04/13 17:53:42;;;;;;;7.43;2.38;;;;;;;9.09;100.00;100486.59;10401990;28;20042;-75
2023/04/13 17:58:43;;;;;;;7.10;1.65;;;;;;;8.95;100.00;100490.78;10419481;28;20057;-78
2023/04/13 18:03:44;;;;;;;10.05;1.83;;;;;;;8.80;100.00;100505.09;10400620;28;20052;-79
2023/04/13 18:08:44;;;;;;;8.15;1.77;;;;;;;8.85;100.00;100534.56;10417054;28;20038;-79
2023/04/13 18:13:45;;;;;;;12.10;2.28;;;;;;;8.73;100.00;100542.06;10417545;28;20037;-80
2023/04/13 18:18:45;;;;;;;13.75;3.08;;;;;;;8.56;100.00;100558.50;10400440;28;20044;-80
2023/04/13 18:23:46;;;;;;;9.43;2.45;;;;;;;8.40;100.00;100568.38;10417913;28;20033;-78
2023/04/13 18:28:46;;;;;;;5.03;1.60;;;;;;;8.24;100.00;100583.72;10419431;28;20507;-78
2023/04/13 18:33:46;;;;;;;6.97;2.08;;;;;;;7.99;100.00;100589.53;10416303;28;20407;-77
2023/04/13 18:38:47;;;;;;;6.72;1.90;;;;;;;7.74;100.00;100596.16;10417316;28;20046;-79
2023/04/13 18:43:48;;;;;;;10.50;2.03;;;;;;;7.39;100.00;100615.41;10399624;28;20038;-78
2023/04/13 18:48:48;;;;;;;9.30;3.38;;;;;;;6.90;100.00;100601.94;10397756;28;20052;-78
2023/04/13 18:53:49;;;;;;;13.60;2.45;;;;;;;6.73;100.00;100639.28;10399945;28;20049;-77
2023/04/13 18:58:49;;;;;;;5.63;1.85;;;;;;;6.32;100.00;100632.75;10399158;28;20064;-77
2023/04/13 19:03:51;;;;;;;10.82;1.77;;;;;;;6.06;100.00;100637.53;10413767;28;20034;-76
2023/04/13 19:08:51;;;;;;;10.48;2.20;;;;;;;5.97;100.00;100663.47;10415599;28;20047;-77
2023/04/13 19:13:52;;;;;;;11.15;2.47;;;;;;;5.69;100.00;100648.44;10381742;28;20064;-77
2023/04/13 19:18:52;;;;;;;7.88;2.20;;;;;;;5.53;100.00;100651.78;10381377;28;20535;-81
2023/04/13 19:23:53;;;;;;;13.95;3.05;;;;;;;5.38;100.00;100660.34;10415548;28;20508;-74
2023/04/13 19:28:56;;;;;;;10.23;2.72;;;;;;;5.19;100.00;100665.75;10398058;28;21037;-80
2023/04/13 19:33:57;;;;;;;18.00;3.10;;;;;;;5.18;100.00;100682.34;10397043;28;20072;-79
2023/04/13 19:39:03;;;;;;;8.85;3.33;;;;;;;5.01;100.00;100682.91;10395823;28;20029;-79
2023/04/13 19:44:04;;;;;;;;;;;;;;;5.09;100.00;100691.88;10398024;28;20030;-78
2023/04/13 19:49:04;;;;;;;8.32;2.45;;;;;;;4.90;100.00;100674.59;10426041;28;19929;-78
2023/04/13 19:54:05;;;;;;;12.13;2.85;;;;;;;4.86;100.00;100690.59;10397997;28;20049;-77
2023/04/13 19:59:05;;;;;;;8.95;2.88;;;;;;;4.62;100.00;100678.56;10412878;28;20428;-78
2023/04/13 20:04:07;;;;;;;15.23;3.53;;;;;;;4.56;100.00;100696.63;10395341;28;20065;-78
2023/04/13 20:09:11;;;;;;;21.67;3.92;;;;;;;4.40;100.00;100702.59;10410614;28;20041;-77
2023/04/13 20:14:12;;;;;;;10.27;2.75;;;;;;;4.24;100.00;100696.63;10412894;28;20095;-78
2023/04/13 20:19:13;;;;;;;13.60;3.10;;;;;;;4.11;100.00;100699.38;10395341;28;20139;-77
2023/04/13 20:24:13;;;;;;;7.88;2.80;;;;;;;4.11;100.00;100714.91;10397148;28;20034;-77
2023/04/13 20:29:17;;;;;;;12.45;2.97;;;;;;;4.01;100.00;100713.47;10394845;28;20044;-78
2023/04/13 20:34:19;;;;;;;11.05;3.35;;;;;;;4.07;100.00;100725.38;10383492;28;20050;-78
2023/04/13 20:39:24;;;;;;;16.83;3.33;;;;;;;3.98;100.00;100713.91;10397296;28;20500;-78
2023/04/13 20:44:26;;;;;;;8.75;2.97;;;;;;;4.02;100.00;100730.66;10373873;28;20056;-78
2023/04/13 20:49:30;;;;;;;10.20;2.90;;;;;;;3.91;100.00;100732.16;10383714;28;20043;-79
2023/04/13 20:54:31;;;;;;;12.07;3.50;;;;;;;3.90;100.00;100751.44;10394393;28;20041;-77
2023/04/13 20:59:31;;;;;;;10.18;3.30;;;;;;;3.66;100.00;100710.22;10393587;28;20045;-77
2023/04/13 21:04:31;;;;;;;13.27;3.65;;;;;;;3.72;100.00;100728.44;10393094;28;20075;-78
2023/04/13 21:09:32;;;;;;;11.10;4.13;;;;;;;3.65;100.00;100738.50;10392865;28;20524;-76
2023/04/13 21:14:33;;;;;;;15.90;3.63;;;;;;;3.52;100.00;100743.97;10392025;28;20397;-78
2023/04/13 21:19:33;;;;;;;15.23;4.00;;;;;;;3.38;100.00;100734.97;10396793;28;20049;-78
2023/04/13 21:24:34;;;;;;;9.35;3.30;;;;;;;3.31;100.00;100751.31;10420369;28;20043;-77
2023/04/13 21:29:35;;;;;;;15.88;2.88;;;;;;;3.12;100.00;100728.50;10384846;28;20107;-73
2023/04/13 21:34:35;;;;;;;12.98;2.50;;;;;;;3.09;100.00;100738.94;10417441;28;20099;-77
2023/04/13 21:39:37;;;;;;;19.40;2.65;;;;;;;3.01;100.00;100750.84;10384389;28;20080;-77
2023/04/13 21:44:37;;;;;;;13.10;3.17;;;;;;;2.90;100.00;100746.03;10418828;28;20061;-77
2023/04/13 21:49:38;;;;;;;12.68;3.45;;;;;;;2.77;100.00;100742.25;10402688;28;20044;-77
2023/04/13 21:54:38;;;;;;;11.63;2.95;;;;;;;2.83;100.00;100770.47;10401486;28;20091;-78
2023/04/13 21:59:39;;;;;;;6.88;2.70;;;;;;;2.71;100.00;100763.97;10394215;28;20109;-78
2023/04/13 22:04:39;;;;;;;15.52;2.80;;;;;;;2.67;100.00;100762.69;10392999;28;20037;-78
2023/04/13 22:09:40;;;;;;;16.02;2.80;;;;;;;2.61;100.00;100767.09;10399530;28;20037;-78
2023/04/13 22:14:41;;;;;;;10.48;3.28;;;;;;;2.53;100.00;100772.72;10417961;28;20038;-77
2023/04/13 22:19:41;;;;;;;13.63;2.88;;;;;;;2.52;100.00;100781.91;10402331;28;20049;-77
2023/04/13 22:24:41;;;;;;;11.07;3.65;;;;;;;2.35;100.00;100765.13;10394744;28;20046;-78
2023/04/13 22:29:42;;;;;;;15.32;3.00;;;;;;;2.34;100.00;100775.16;10325181;28;20116;-79
2023/04/13 22:34:42;;;;;;;21.30;3.50;;;;;;;2.29;100.00;100785.78;10341381;28;20050;-77
2023/04/13 22:39:43;;;;;;;12.52;3.15;;;;;;;2.32;100.00;100792.72;10362030;28;20042;-78
2023/04/13 22:44:43;;;;;;;17.40;4.47;;;;;;;2.39;100.00;100801.72;10375671;28;20316;-78
2023/04/13 22:49:44;;;;;;;8.02;3.08;;;;;;;2.37;100.00;100790.19;10374712;28;20038;-76
2023/04/13 22:54:45;;;;;;;10.38;3.30;;;;;;;2.34;100.00;100796.88;10342006;28;20030;-78
2023/04/13 22:59:46;;;;;;;14.90;2.88;;;;;;;2.34;100.00;100806.94;10374471;28;20165;-77
2023/04/13 23:04:46;;;;;;;12.70;3.33;;;;;;;2.28;100.00;100805.84;10356657;28;20056;-78
2023/04/13 23:09:50;;;;;;;12.73;3.28;;;;;;;2.21;100.00;100799.53;10357255;28;20038;-78